sensor_id;sensor_type;location;lat;lon;timestamp;P1;durP1;ratioP1;P2;durP2;ratioP2
43933;SDS011;59081;42.706;23.306;2022-10-04T00:01:10;5.88;;;1.88;;
43933;SDS011;59081;42.706;23.306;2022-10-04T00:06:03;4.22;;;1.55;;
43933;SDS011;59081;42.706;23.306;2022-10-04T00:08:40;2.78;;;2.08;;
43933;SDS011;59081;42.706;23.306;2022-10-04T00:11:14;3.17;;;2.10;;
43933;SDS011;59081;42.706;23.306;2022-10-04T00:13:49;1.20;;;0.98;;
43933;SDS011;59081;42.706;23.306;2022-10-04T00:16:27;2.80;;;1.63;;
43933;SDS011;59081;42.706;23.306;2022-10-04T00:18:59;4.95;;;1.80;;
43933;SDS011;59081;42.706;23.306;2022-10-04T00:29:49;1.73;;;1.63;;
43933;SDS011;59081;42.706;23.306;2022-10-04T00:37:56;3.00;;;1.75;;
43933;SDS011;59081;42.706;23.306;2022-10-04T00:40:24;2.60;;;1.80;;
43933;SDS011;59081;42.706;23.306;2022-10-04T00:48:23;7.43;;;1.70;;
43933;SDS011;59081;42.706;23.306;2022-10-04T00:51:11;2.85;;;1.38;;
43933;SDS011;59081;42.706;23.306;2022-10-04T00:56:22;3.20;;;1.63;;
43933;SDS011;59081;42.706;23.306;2022-10-04T01:01:25;2.17;;;1.65;;
43933;SDS011;59081;42.706;23.306;2022-10-04T01:03:52;3.58;;;1.50;;
43933;SDS011;59081;42.706;23.306;2022-10-04T01:06:21;3.90;;;1.50;;
43933;SDS011;59081;42.706;23.306;2022-10-04T01:08:51;3.42;;;1.65;;
43933;SDS011;59081;42.706;23.306;2022-10-04T01:18:52;1.63;;;1.48;;
43933;SDS011;59081;42.706;23.306;2022-10-04T01:28:54;3.40;;;1.67;;
43933;SDS011;59081;42.706;23.306;2022-10-04T01:31:23;2.65;;;1.42;;
43933;SDS011;59081;42.706;23.306;2022-10-04T01:33:50;2.10;;;1.48;;
43933;SDS011;59081;42.706;23.306;2022-10-04T01:36:16;2.75;;;1.30;;
43933;SDS011;59081;42.706;23.306;2022-10-04T01:38:42;3.53;;;1.40;;
43933;SDS011;59081;42.706;23.306;2022-10-04T01:41:08;2.47;;;2.28;;
43933;SDS011;59081;42.706;23.306;2022-10-04T01:43:38;2.45;;;1.30;;
43933;SDS011;59081;42.706;23.306;2022-10-04T01:46:40;1.67;;;1.55;;
43933;SDS011;59081;42.706;23.306;2022-10-04T01:49:05;2.05;;;1.30;;
43933;SDS011;59081;42.706;23.306;2022-10-04T01:51:41;4.00;;;2.25;;
43933;SDS011;59081;42.706;23.306;2022-10-04T01:54:17;4.13;;;1.70;;
43933;SDS011;59081;42.706;23.306;2022-10-04T01:57:04;2.22;;;1.20;;
43933;SDS011;59081;42.706;23.306;2022-10-04T01:59:42;4.20;;;1.65;;
43933;SDS011;59081;42.706;23.306;2022-10-04T02:04:58;3.00;;;1.50;;
43933;SDS011;59081;42.706;23.306;2022-10-04T02:07:27;2.88;;;1.23;;
43933;SDS011;59081;42.706;23.306;2022-10-04T02:09:56;3.40;;;1.27;;
43933;SDS011;59081;42.706;23.306;2022-10-04T02:12:27;2.93;;;1.50;;
43933;SDS011;59081;42.706;23.306;2022-10-04T02:14:55;7.00;;;1.40;;
43933;SDS011;59081;42.706;23.306;2022-10-04T02:17:28;2.28;;;1.40;;
43933;SDS011;59081;42.706;23.306;2022-10-04T02:19:56;1.52;;;1.30;;
43933;SDS011;59081;42.706;23.306;2022-10-04T02:22:24;1.88;;;1.65;;
43933;SDS011;59081;42.706;23.306;2022-10-04T02:24:51;3.80;;;1.98;;
43933;SDS011;59081;42.706;23.306;2022-10-04T02:27:18;4.68;;;1.45;;
43933;SDS011;59081;42.706;23.306;2022-10-04T02:29:44;3.75;;;1.58;;
43933;SDS011;59081;42.706;23.306;2022-10-04T02:32:10;4.38;;;1.80;;
43933;SDS011;59081;42.706;23.306;2022-10-04T02:34:57;2.00;;;1.33;;
43933;SDS011;59081;42.706;23.306;2022-10-04T02:37:23;3.38;;;1.88;;
43933;SDS011;59081;42.706;23.306;2022-10-04T02:39:52;3.63;;;1.98;;
43933;SDS011;59081;42.706;23.306;2022-10-04T02:42:32;4.47;;;1.60;;
43933;SDS011;59081;42.706;23.306;2022-10-04T02:45:10;4.25;;;1.90;;
43933;SDS011;59081;42.706;23.306;2022-10-04T02:47:46;3.15;;;1.92;;
43933;SDS011;59081;42.706;23.306;2022-10-04T02:56:01;2.38;;;1.70;;
43933;SDS011;59081;42.706;23.306;2022-10-04T02:58:27;5.28;;;1.73;;
43933;SDS011;59081;42.706;23.306;2022-10-04T03:00:55;2.97;;;1.80;;
43933;SDS011;59081;42.706;23.306;2022-10-04T03:05:55;2.75;;;1.70;;
43933;SDS011;59081;42.706;23.306;2022-10-04T03:08:25;2.60;;;2.08;;
43933;SDS011;59081;42.706;23.306;2022-10-04T03:10:53;4.60;;;1.85;;
43933;SDS011;59081;42.706;23.306;2022-10-04T03:13:19;2.70;;;1.95;;
43933;SDS011;59081;42.706;23.306;2022-10-04T03:15:48;6.28;;;1.92;;
43933;SDS011;59081;42.706;23.306;2022-10-04T03:18:14;2.45;;;1.35;;
43933;SDS011;59081;42.706;23.306;2022-10-04T03:20:41;2.67;;;1.77;;
43933;SDS011;59081;42.706;23.306;2022-10-04T03:23:08;2.33;;;1.83;;
43933;SDS011;59081;42.706;23.306;2022-10-04T03:26:13;5.45;;;1.88;;
43933;SDS011;59081;42.706;23.306;2022-10-04T03:28:35;3.25;;;1.70;;
43933;SDS011;59081;42.706;23.306;2022-10-04T03:31:01;2.90;;;1.67;;
43933;SDS011;59081;42.706;23.306;2022-10-04T03:33:27;2.63;;;1.75;;
43933;SDS011;59081;42.706;23.306;2022-10-04T03:35:54;3.35;;;1.85;;
43933;SDS011;59081;42.706;23.306;2022-10-04T03:38:22;2.20;;;1.80;;
43933;SDS011;59081;42.706;23.306;2022-10-04T03:40:57;4.68;;;1.92;;
43933;SDS011;59081;42.706;23.306;2022-10-04T03:43:26;2.75;;;2.30;;
43933;SDS011;59081;42.706;23.306;2022-10-04T03:45:55;8.18;;;2.30;;
43933;SDS011;59081;42.706;23.306;2022-10-04T03:48:42;4.88;;;2.25;;
43933;SDS011;59081;42.706;23.306;2022-10-04T03:51:10;3.75;;;2.38;;
43933;SDS011;59081;42.706;23.306;2022-10-04T03:53:41;7.05;;;2.10;;
43933;SDS011;59081;42.706;23.306;2022-10-04T03:58:55;4.07;;;2.30;;
43933;SDS011;59081;42.706;23.306;2022-10-04T04:01:38;5.07;;;2.20;;
43933;SDS011;59081;42.706;23.306;2022-10-04T04:04:15;5.13;;;2.50;;
43933;SDS011;59081;42.706;23.306;2022-10-04T04:07:01;3.88;;;2.40;;
43933;SDS011;59081;42.706;23.306;2022-10-04T04:12:02;7.40;;;2.83;;
43933;SDS011;59081;42.706;23.306;2022-10-04T04:14:33;12.13;;;3.47;;
43933;SDS011;59081;42.706;23.306;2022-10-04T04:19:49;4.22;;;2.80;;
43933;SDS011;59081;42.706;23.306;2022-10-04T04:22:34;7.80;;;3.40;;
43933;SDS011;59081;42.706;23.306;2022-10-04T04:25:01;4.50;;;2.88;;
43933;SDS011;59081;42.706;23.306;2022-10-04T04:27:32;9.63;;;5.25;;
43933;SDS011;59081;42.706;23.306;2022-10-04T04:30:05;13.68;;;6.88;;
43933;SDS011;59081;42.706;23.306;2022-10-04T04:32:33;13.40;;;4.75;;
43933;SDS011;59081;42.706;23.306;2022-10-04T04:35:05;5.97;;;3.22;;
43933;SDS011;59081;42.706;23.306;2022-10-04T04:37:54;7.25;;;3.55;;
43933;SDS011;59081;42.706;23.306;2022-10-04T04:40:41;4.43;;;2.97;;
43933;SDS011;59081;42.706;23.306;2022-10-04T04:43:15;5.68;;;3.13;;
43933;SDS011;59081;42.706;23.306;2022-10-04T04:45:44;4.50;;;3.10;;
43933;SDS011;59081;42.706;23.306;2022-10-04T04:48:13;4.40;;;2.60;;
43933;SDS011;59081;42.706;23.306;2022-10-04T04:50:47;5.25;;;3.00;;
43933;SDS011;59081;42.706;23.306;2022-10-04T04:53:21;3.55;;;2.63;;
43933;SDS011;59081;42.706;23.306;2022-10-04T04:55:54;6.97;;;3.63;;
43933;SDS011;59081;42.706;23.306;2022-10-04T04:58:28;5.53;;;2.95;;
43933;SDS011;59081;42.706;23.306;2022-10-04T05:01:00;4.15;;;3.30;;
43933;SDS011;59081;42.706;23.306;2022-10-04T05:03:33;5.65;;;2.80;;
43933;SDS011;59081;42.706;23.306;2022-10-04T05:05:59;13.52;;;2.50;;
43933;SDS011;59081;42.706;23.306;2022-10-04T05:08:30;3.70;;;2.50;;
43933;SDS011;59081;42.706;23.306;2022-10-04T05:13:34;4.55;;;2.60;;
43933;SDS011;59081;42.706;23.306;2022-10-04T05:16:08;2.92;;;2.70;;
43933;SDS011;59081;42.706;23.306;2022-10-04T05:18:38;5.60;;;2.70;;
43933;SDS011;59081;42.706;23.306;2022-10-04T05:23:36;4.70;;;2.65;;
43933;SDS011;59081;42.706;23.306;2022-10-04T05:26:02;5.75;;;2.95;;
43933;SDS011;59081;42.706;23.306;2022-10-04T05:31:06;11.57;;;3.03;;
43933;SDS011;59081;42.706;23.306;2022-10-04T05:33:36;3.55;;;2.50;;
43933;SDS011;59081;42.706;23.306;2022-10-04T05:36:24;6.18;;;2.70;;
43933;SDS011;59081;42.706;23.306;2022-10-04T05:39:06;12.40;;;2.78;;
43933;SDS011;59081;42.706;23.306;2022-10-04T05:44:27;2.80;;;2.53;;
43933;SDS011;59081;42.706;23.306;2022-10-04T05:47:00;6.18;;;2.80;;
43933;SDS011;59081;42.706;23.306;2022-10-04T05:49:31;2.45;;;2.25;;
43933;SDS011;59081;42.706;23.306;2022-10-04T05:52:00;3.67;;;2.53;;
43933;SDS011;59081;42.706;23.306;2022-10-04T05:54:29;6.97;;;2.72;;
43933;SDS011;59081;42.706;23.306;2022-10-04T06:05:53;6.40;;;2.50;;
43933;SDS011;59081;42.706;23.306;2022-10-04T06:08:55;7.00;;;3.30;;
43933;SDS011;59081;42.706;23.306;2022-10-04T06:11:37;5.00;;;2.53;;
43933;SDS011;59081;42.706;23.306;2022-10-04T06:17:06;3.40;;;2.30;;
43933;SDS011;59081;42.706;23.306;2022-10-04T06:19:54;4.05;;;2.40;;
43933;SDS011;59081;42.706;23.306;2022-10-04T06:22:34;2.42;;;2.17;;
43933;SDS011;59081;42.706;23.306;2022-10-04T06:25:10;6.28;;;2.22;;
43933;SDS011;59081;42.706;23.306;2022-10-04T06:44:42;3.85;;;1.80;;
43933;SDS011;59081;42.706;23.306;2022-10-04T06:50:18;4.63;;;2.20;;
43933;SDS011;59081;42.706;23.306;2022-10-04T06:52:57;3.42;;;1.92;;
43933;SDS011;59081;42.706;23.306;2022-10-04T07:01:13;6.38;;;2.60;;
43933;SDS011;59081;42.706;23.306;2022-10-04T07:06:12;3.42;;;2.05;;
43933;SDS011;59081;42.706;23.306;2022-10-04T07:11:17;5.72;;;2.08;;
43933;SDS011;59081;42.706;23.306;2022-10-04T07:24:46;2.60;;;1.27;;
43933;SDS011;59081;42.706;23.306;2022-10-04T07:30:15;7.28;;;3.95;;
43933;SDS011;59081;42.706;23.306;2022-10-04T07:32:44;5.63;;;2.08;;
43933;SDS011;59081;42.706;23.306;2022-10-04T07:35:14;7.03;;;2.00;;
43933;SDS011;59081;42.706;23.306;2022-10-04T07:40:35;5.60;;;2.05;;
43933;SDS011;59081;42.706;23.306;2022-10-04T07:43:12;2.92;;;1.95;;
43933;SDS011;59081;42.706;23.306;2022-10-04T07:45:48;2.45;;;1.65;;
43933;SDS011;59081;42.706;23.306;2022-10-04T07:48:18;7.65;;;2.50;;
43933;SDS011;59081;42.706;23.306;2022-10-04T07:50:51;5.03;;;2.05;;
43933;SDS011;59081;42.706;23.306;2022-10-04T07:53:31;4.85;;;2.38;;
43933;SDS011;59081;42.706;23.306;2022-10-04T07:56:10;2.03;;;1.90;;
43933;SDS011;59081;42.706;23.306;2022-10-04T08:01:46;5.90;;;2.10;;
43933;SDS011;59081;42.706;23.306;2022-10-04T08:07:19;3.63;;;1.98;;
43933;SDS011;59081;42.706;23.306;2022-10-04T08:10:09;11.30;;;2.50;;
43933;SDS011;59081;42.706;23.306;2022-10-04T08:15:38;2.25;;;1.73;;
43933;SDS011;59081;42.706;23.306;2022-10-04T08:21:04;5.63;;;1.85;;
43933;SDS011;59081;42.706;23.306;2022-10-04T08:37:39;1.90;;;1.73;;
43933;SDS011;59081;42.706;23.306;2022-10-04T08:40:37;1.90;;;1.73;;
43933;SDS011;59081;42.706;23.306;2022-10-04T08:58:04;3.53;;;1.73;;
43933;SDS011;59081;42.706;23.306;2022-10-04T09:00:55;2.70;;;2.05;;
43933;SDS011;59081;42.706;23.306;2022-10-04T09:06:30;3.05;;;1.88;;
43933;SDS011;59081;42.706;23.306;2022-10-04T09:17:45;2.28;;;1.55;;
43933;SDS011;59081;42.706;23.306;2022-10-04T09:29:30;3.50;;;1.50;;
43933;SDS011;59081;42.706;23.306;2022-10-04T09:32:29;2.95;;;1.92;;
43933;SDS011;59081;42.706;23.306;2022-10-04T09:38:09;4.93;;;1.95;;
43933;SDS011;59081;42.706;23.306;2022-10-04T09:40:49;6.55;;;1.95;;
43933;SDS011;59081;42.706;23.306;2022-10-04T09:52:39;2.05;;;1.52;;
43933;SDS011;59081;42.706;23.306;2022-10-04T10:14:51;3.70;;;1.73;;
43933;SDS011;59081;42.706;23.306;2022-10-04T10:17:30;3.10;;;1.63;;
43933;SDS011;59081;42.706;23.306;2022-10-04T10:30:22;1.70;;;1.60;;
43933;SDS011;59081;42.706;23.306;2022-10-04T10:36:17;2.05;;;1.52;;
43933;SDS011;59081;42.706;23.306;2022-10-04T10:50:24;1.88;;;1.77;;
43933;SDS011;59081;42.706;23.306;2022-10-04T11:28:56;1.77;;;1.67;;
43933;SDS011;59081;42.706;23.306;2022-10-04T11:42:38;3.17;;;1.70;;
43933;SDS011;59081;42.706;23.306;2022-10-04T11:45:31;4.00;;;1.40;;
43933;SDS011;59081;42.706;23.306;2022-10-04T12:12:38;3.63;;;1.40;;
43933;SDS011;59081;42.706;23.306;2022-10-04T12:21:01;2.67;;;1.40;;
43933;SDS011;59081;42.706;23.306;2022-10-04T12:23:57;3.03;;;1.83;;
43933;SDS011;59081;42.706;23.306;2022-10-04T12:27:44;3.38;;;1.77;;
43933;SDS011;59081;42.706;23.306;2022-10-04T12:30:03;2.55;;;1.30;;
43933;SDS011;59081;42.706;23.306;2022-10-04T12:38:36;3.65;;;1.33;;
43933;SDS011;59081;42.706;23.306;2022-10-04T12:49:44;1.50;;;1.40;;
43933;SDS011;59081;42.706;23.306;2022-10-04T13:00:20;6.25;;;1.98;;
43933;SDS011;59081;42.706;23.306;2022-10-04T13:08:20;1.55;;;1.45;;
43933;SDS011;59081;42.706;23.306;2022-10-04T13:18:51;1.77;;;1.40;;
43933;SDS011;59081;42.706;23.306;2022-10-04T13:27:39;4.80;;;1.90;;
43933;SDS011;59081;42.706;23.306;2022-10-04T13:38:35;3.13;;;1.52;;
43933;SDS011;59081;42.706;23.306;2022-10-04T13:41:25;4.75;;;2.00;;
43933;SDS011;59081;42.706;23.306;2022-10-04T13:44:25;3.42;;;1.48;;
43933;SDS011;59081;42.706;23.306;2022-10-04T13:56:01;2.15;;;1.70;;
43933;SDS011;59081;42.706;23.306;2022-10-04T14:20:51;3.78;;;2.15;;
43933;SDS011;59081;42.706;23.306;2022-10-04T14:28:57;2.00;;;1.65;;
43933;SDS011;59081;42.706;23.306;2022-10-04T14:39:51;5.28;;;2.80;;
43933;SDS011;59081;42.706;23.306;2022-10-04T14:48:00;3.77;;;2.30;;
43933;SDS011;59081;42.706;23.306;2022-10-04T14:53:32;10.77;;;2.67;;
43933;SDS011;59081;42.706;23.306;2022-10-04T14:59:07;7.13;;;2.65;;
43933;SDS011;59081;42.706;23.306;2022-10-04T15:12:21;7.63;;;2.88;;
43933;SDS011;59081;42.706;23.306;2022-10-04T15:17:34;4.43;;;2.63;;
43933;SDS011;59081;42.706;23.306;2022-10-04T15:22:37;5.93;;;3.33;;
43933;SDS011;59081;42.706;23.306;2022-10-04T15:25:51;2.70;;;2.22;;
43933;SDS011;59081;42.706;23.306;2022-10-04T15:28:10;7.68;;;3.00;;
43933;SDS011;59081;42.706;23.306;2022-10-04T15:33:26;3.53;;;2.80;;
43933;SDS011;59081;42.706;23.306;2022-10-04T15:44:43;7.00;;;2.90;;
43933;SDS011;59081;42.706;23.306;2022-10-04T15:50:28;4.72;;;2.33;;
43933;SDS011;59081;42.706;23.306;2022-10-04T16:10:21;4.30;;;3.20;;
43933;SDS011;59081;42.706;23.306;2022-10-04T16:15:42;7.57;;;3.85;;
43933;SDS011;59081;42.706;23.306;2022-10-04T16:39:55;10.88;;;6.60;;
43933;SDS011;59081;42.706;23.306;2022-10-04T16:47:35;7.43;;;5.00;;
43933;SDS011;59081;42.706;23.306;2022-10-04T16:50:08;10.13;;;5.50;;
43933;SDS011;59081;42.706;23.306;2022-10-04T17:04:02;9.40;;;5.95;;
43933;SDS011;59081;42.706;23.306;2022-10-04T17:06:48;9.82;;;6.20;;
43933;SDS011;59081;42.706;23.306;2022-10-04T17:09:28;14.70;;;7.88;;
43933;SDS011;59081;42.706;23.306;2022-10-04T17:25:52;10.80;;;5.82;;
43933;SDS011;59081;42.706;23.306;2022-10-04T17:34:13;10.52;;;6.80;;
43933;SDS011;59081;42.706;23.306;2022-10-04T17:36:59;8.88;;;6.03;;
43933;SDS011;59081;42.706;23.306;2022-10-04T17:39:51;12.85;;;5.40;;
43933;SDS011;59081;42.706;23.306;2022-10-04T17:48:14;11.60;;;6.30;;
43933;SDS011;59081;42.706;23.306;2022-10-04T17:53:52;9.82;;;6.35;;
43933;SDS011;59081;42.706;23.306;2022-10-04T17:57:16;11.07;;;6.28;;
43933;SDS011;59081;42.706;23.306;2022-10-04T17:59:58;11.25;;;6.63;;
43933;SDS011;59081;42.706;23.306;2022-10-04T18:05:25;13.70;;;8.30;;
43933;SDS011;59081;42.706;23.306;2022-10-04T18:07:59;10.07;;;6.95;;
43933;SDS011;59081;42.706;23.306;2022-10-04T18:10:33;12.82;;;8.02;;
43933;SDS011;59081;42.706;23.306;2022-10-04T18:13:14;17.20;;;9.65;;
43933;SDS011;59081;42.706;23.306;2022-10-04T18:15:49;22.48;;;10.55;;
43933;SDS011;59081;42.706;23.306;2022-10-04T18:18:22;11.85;;;8.60;;
43933;SDS011;59081;42.706;23.306;2022-10-04T18:23:23;11.27;;;8.07;;
43933;SDS011;59081;42.706;23.306;2022-10-04T18:26:25;10.82;;;7.63;;
43933;SDS011;59081;42.706;23.306;2022-10-04T18:28:44;11.48;;;7.18;;
43933;SDS011;59081;42.706;23.306;2022-10-04T18:31:56;10.45;;;6.68;;
43933;SDS011;59081;42.706;23.306;2022-10-04T18:34:46;12.07;;;6.45;;
43933;SDS011;59081;42.706;23.306;2022-10-04T18:37:37;15.23;;;7.38;;
43933;SDS011;59081;42.706;23.306;2022-10-04T18:39:53;12.15;;;7.55;;
43933;SDS011;59081;42.706;23.306;2022-10-04T18:42:33;11.55;;;7.30;;
43933;SDS011;59081;42.706;23.306;2022-10-04T18:45:16;15.45;;;8.27;;
43933;SDS011;59081;42.706;23.306;2022-10-04T18:47:45;15.93;;;7.25;;
43933;SDS011;59081;42.706;23.306;2022-10-04T18:52:51;11.93;;;6.57;;
43933;SDS011;59081;42.706;23.306;2022-10-04T19:04:17;12.43;;;6.47;;
43933;SDS011;59081;42.706;23.306;2022-10-04T19:06:50;11.85;;;7.03;;
43933;SDS011;59081;42.706;23.306;2022-10-04T19:09:25;11.38;;;6.82;;
43933;SDS011;59081;42.706;23.306;2022-10-04T19:12:30;13.20;;;6.68;;
43933;SDS011;59081;42.706;23.306;2022-10-04T19:17:31;11.13;;;6.55;;
43933;SDS011;59081;42.706;23.306;2022-10-04T19:20:04;9.70;;;7.18;;
43933;SDS011;59081;42.706;23.306;2022-10-04T19:28:44;18.33;;;8.23;;
43933;SDS011;59081;42.706;23.306;2022-10-04T19:31:22;13.25;;;8.50;;
43933;SDS011;59081;42.706;23.306;2022-10-04T19:34:04;14.02;;;7.97;;
43933;SDS011;59081;42.706;23.306;2022-10-04T19:42:16;14.30;;;7.97;;
43933;SDS011;59081;42.706;23.306;2022-10-04T19:47:51;30.05;;;14.13;;
43933;SDS011;59081;42.706;23.306;2022-10-04T19:50:23;21.33;;;11.27;;
43933;SDS011;59081;42.706;23.306;2022-10-04T19:52:58;23.50;;;11.57;;
43933;SDS011;59081;42.706;23.306;2022-10-04T19:55:47;16.95;;;11.35;;
43933;SDS011;59081;42.706;23.306;2022-10-04T20:01:07;24.30;;;14.20;;
43933;SDS011;59081;42.706;23.306;2022-10-04T20:03:35;26.30;;;13.73;;
43933;SDS011;59081;42.706;23.306;2022-10-04T20:06:00;22.75;;;13.90;;
43933;SDS011;59081;42.706;23.306;2022-10-04T20:08:43;27.00;;;14.60;;
43933;SDS011;59081;42.706;23.306;2022-10-04T20:11:27;21.50;;;14.23;;
43933;SDS011;59081;42.706;23.306;2022-10-04T20:19:19;18.52;;;11.50;;
43933;SDS011;59081;42.706;23.306;2022-10-04T20:21:51;23.10;;;10.93;;
43933;SDS011;59081;42.706;23.306;2022-10-04T20:27:04;9.23;;;7.18;;
43933;SDS011;59081;42.706;23.306;2022-10-04T20:32:05;7.88;;;5.60;;
43933;SDS011;59081;42.706;23.306;2022-10-04T20:37:04;11.70;;;5.60;;
43933;SDS011;59081;42.706;23.306;2022-10-04T20:53:00;7.43;;;4.45;;
43933;SDS011;59081;42.706;23.306;2022-10-04T20:55:34;5.93;;;4.10;;
43933;SDS011;59081;42.706;23.306;2022-10-04T20:58:20;6.85;;;4.18;;
43933;SDS011;59081;42.706;23.306;2022-10-04T21:00:49;7.25;;;3.67;;
43933;SDS011;59081;42.706;23.306;2022-10-04T21:06:06;5.57;;;3.65;;
43933;SDS011;59081;42.706;23.306;2022-10-04T21:08:33;5.63;;;3.25;;
43933;SDS011;59081;42.706;23.306;2022-10-04T21:11:07;5.85;;;3.72;;
43933;SDS011;59081;42.706;23.306;2022-10-04T21:13:54;7.30;;;3.45;;
43933;SDS011;59081;42.706;23.306;2022-10-04T21:16:31;8.32;;;3.72;;
43933;SDS011;59081;42.706;23.306;2022-10-04T21:27:11;7.90;;;3.95;;
43933;SDS011;59081;42.706;23.306;2022-10-04T21:29:49;5.85;;;4.07;;
43933;SDS011;59081;42.706;23.306;2022-10-04T21:32:17;6.55;;;3.88;;
43933;SDS011;59081;42.706;23.306;2022-10-04T21:34:43;4.22;;;3.60;;
43933;SDS011;59081;42.706;23.306;2022-10-04T21:37:08;7.32;;;4.40;;
43933;SDS011;59081;42.706;23.306;2022-10-04T21:39:34;9.05;;;5.03;;
43933;SDS011;59081;42.706;23.306;2022-10-04T21:41:59;8.00;;;4.72;;
43933;SDS011;59081;42.706;23.306;2022-10-04T21:44:25;6.88;;;4.80;;
43933;SDS011;59081;42.706;23.306;2022-10-04T21:46:50;8.55;;;5.22;;
43933;SDS011;59081;42.706;23.306;2022-10-04T21:49:16;8.40;;;5.18;;
43933;SDS011;59081;42.706;23.306;2022-10-04T21:51:41;11.50;;;6.13;;
43933;SDS011;59081;42.706;23.306;2022-10-04T21:54:07;10.68;;;5.55;;
43933;SDS011;59081;42.706;23.306;2022-10-04T21:56:32;9.85;;;6.60;;
43933;SDS011;59081;42.706;23.306;2022-10-04T21:58:57;16.10;;;8.50;;
43933;SDS011;59081;42.706;23.306;2022-10-04T22:01:23;13.38;;;9.95;;
43933;SDS011;59081;42.706;23.306;2022-10-04T22:03:49;14.93;;;10.52;;
43933;SDS011;59081;42.706;23.306;2022-10-04T22:06:14;14.13;;;9.13;;
43933;SDS011;59081;42.706;23.306;2022-10-04T22:08:40;11.38;;;8.85;;
43933;SDS011;59081;42.706;23.306;2022-10-04T22:11:07;11.35;;;8.18;;
43933;SDS011;59081;42.706;23.306;2022-10-04T22:13:33;12.85;;;7.43;;
43933;SDS011;59081;42.706;23.306;2022-10-04T22:15:58;13.23;;;8.02;;
43933;SDS011;59081;42.706;23.306;2022-10-04T22:18:24;12.20;;;6.75;;
43933;SDS011;59081;42.706;23.306;2022-10-04T22:20:49;7.40;;;5.15;;
43933;SDS011;59081;42.706;23.306;2022-10-04T22:23:19;7.63;;;5.05;;
43933;SDS011;59081;42.706;23.306;2022-10-04T22:25:46;6.93;;;5.65;;
43933;SDS011;59081;42.706;23.306;2022-10-04T22:28:13;10.75;;;5.60;;
43933;SDS011;59081;42.706;23.306;2022-10-04T22:30:45;17.30;;;5.57;;
43933;SDS011;59081;42.706;23.306;2022-10-04T22:38:37;6.22;;;4.72;;
43933;SDS011;59081;42.706;23.306;2022-10-04T22:41:10;7.90;;;4.15;;
43933;SDS011;59081;42.706;23.306;2022-10-04T22:43:37;7.32;;;4.43;;
43933;SDS011;59081;42.706;23.306;2022-10-04T22:46:02;6.65;;;3.95;;
43933;SDS011;59081;42.706;23.306;2022-10-04T22:48:28;6.63;;;4.00;;
43933;SDS011;59081;42.706;23.306;2022-10-04T22:50:53;5.25;;;4.22;;
43933;SDS011;59081;42.706;23.306;2022-10-04T22:53:20;8.18;;;3.92;;
43933;SDS011;59081;42.706;23.306;2022-10-04T22:55:47;6.50;;;4.93;;
43933;SDS011;59081;42.706;23.306;2022-10-04T22:58:14;12.18;;;4.55;;
43933;SDS011;59081;42.706;23.306;2022-10-04T23:00:41;6.80;;;3.92;;
43933;SDS011;59081;42.706;23.306;2022-10-04T23:03:13;7.82;;;4.60;;
43933;SDS011;59081;42.706;23.306;2022-10-04T23:05:48;7.22;;;4.20;;
43933;SDS011;59081;42.706;23.306;2022-10-04T23:08:14;9.05;;;4.60;;
43933;SDS011;59081;42.706;23.306;2022-10-04T23:10:41;7.82;;;4.32;;
43933;SDS011;59081;42.706;23.306;2022-10-04T23:13:08;7.35;;;4.05;;
43933;SDS011;59081;42.706;23.306;2022-10-04T23:15:33;8.38;;;4.18;;
43933;SDS011;59081;42.706;23.306;2022-10-04T23:17:59;6.53;;;4.25;;
43933;SDS011;59081;42.706;23.306;2022-10-04T23:20:26;4.50;;;3.85;;
43933;SDS011;59081;42.706;23.306;2022-10-04T23:22:52;6.90;;;3.88;;
43933;SDS011;59081;42.706;23.306;2022-10-04T23:25:26;8.13;;;4.50;;
43933;SDS011;59081;42.706;23.306;2022-10-04T23:27:57;8.00;;;4.30;;
43933;SDS011;59081;42.706;23.306;2022-10-04T23:30:25;9.90;;;4.95;;
43933;SDS011;59081;42.706;23.306;2022-10-04T23:32:52;8.27;;;4.72;;
43933;SDS011;59081;42.706;23.306;2022-10-04T23:35:23;5.95;;;4.35;;
43933;SDS011;59081;42.706;23.306;2022-10-04T23:37:49;8.43;;;4.82;;
43933;SDS011;59081;42.706;23.306;2022-10-04T23:40:18;5.07;;;4.18;;
43933;SDS011;59081;42.706;23.306;2022-10-04T23:42:46;10.10;;;5.15;;
43933;SDS011;59081;42.706;23.306;2022-10-04T23:45:20;6.50;;;4.68;;
43933;SDS011;59081;42.706;23.306;2022-10-04T23:47:47;9.05;;;4.65;;
43933;SDS011;59081;42.706;23.306;2022-10-04T23:50:17;5.90;;;4.10;;
43933;SDS011;59081;42.706;23.306;2022-10-04T23:52:47;9.18;;;5.00;;
43933;SDS011;59081;42.706;23.306;2022-10-04T23:55:24;5.35;;;3.83;;
43933;SDS011;59081;42.706;23.306;2022-10-04T23:57:53;13.27;;;4.85;;
